TRA1115 VNKT-VNLK
Flight info
| Callsign | TRA1115 |
|---|---|
| Flight time | 0h 31m |
| Altitude | 11000 |
| Route | IGRIS1D KIMTI DCT VNPL |
| Aircraft | DHC6/L-SDFGR/C |
Departure
| Time | 2026-04-22 22:33 |
|---|---|
| Airport | Tribhuvan International Airport (VNKT) |
Arrival
| Time | 2026-04-22 23:04 |
|---|---|
| Airport | Tenzing-Hillary Airport (VNLK) |
| Time | Latitude | Longitude | Altitude | Speed | Heading |
|---|---|---|---|---|---|
| 2026-04-22 22:16 | 27.70716 | 85.36021 | 4358 ft | 0 kts | 70° |
| 2026-04-22 22:26 | 27.70714 | 85.36024 | 4387 ft | 1 kts | 157° |
| 2026-04-22 22:27 | 27.70695 | 85.36017 | 4387 ft | 6 kts | 200° |
| 2026-04-22 22:27 | 27.70631 | 85.36021 | 4387 ft | 15 kts | 161° |
| 2026-04-22 22:27 | 27.70515 | 85.36065 | 4387 ft | 13 kts | 163° |
| 2026-04-22 22:27 | 27.70491 | 85.36137 | 4388 ft | 10 kts | 72° |
| 2026-04-22 22:28 | 27.70457 | 85.36162 | 4389 ft | 8 kts | 202° |
| 2026-04-22 22:28 | 27.70396 | 85.36134 | 4388 ft | 10 kts | 201° |
| 2026-04-22 22:28 | 27.70331 | 85.36105 | 4388 ft | 10 kts | 204° |
| 2026-04-22 22:28 | 27.70266 | 85.36074 | 4388 ft | 10 kts | 205° |
| 2026-04-22 22:29 | 27.70199 | 85.36044 | 4388 ft | 11 kts | 201° |
| 2026-04-22 22:29 | 27.70126 | 85.36011 | 4447 ft | 12 kts | 202° |
| 2026-04-22 22:29 | 27.70046 | 85.35974 | 4447 ft | 13 kts | 201° |
| 2026-04-22 22:29 | 27.69960 | 85.35935 | 4448 ft | 14 kts | 200° |
| 2026-04-22 22:30 | 27.69870 | 85.35895 | 4447 ft | 14 kts | 201° |
| 2026-04-22 22:30 | 27.69775 | 85.35851 | 4446 ft | 15 kts | 204° |
| 2026-04-22 22:30 | 27.69678 | 85.35807 | 4445 ft | 15 kts | 201° |
| 2026-04-22 22:30 | 27.69582 | 85.35762 | 4447 ft | 15 kts | 204° |
| 2026-04-22 22:31 | 27.69485 | 85.35748 | 4444 ft | 14 kts | 146° |
| 2026-04-22 22:31 | 27.69461 | 85.35829 | 4448 ft | 8 kts | 36° |
| 2026-04-22 22:31 | 27.69467 | 85.35832 | 4448 ft | 0 kts | 25° |
| 2026-04-22 22:32 | 27.69501 | 85.35846 | 4450 ft | 26 kts | 22° |
| 2026-04-22 22:32 | 27.69863 | 85.36010 | 4448 ft | 84 kts | 22° |
| 2026-04-22 22:32 | 27.70518 | 85.36315 | 4593 ft | 113 kts | 23° |
| 2026-04-22 22:32 | 27.71281 | 85.36640 | 4902 ft | 116 kts | 23° |
| 2026-04-22 22:33 | 27.71980 | 85.37033 | 5401 ft | 109 kts | 32° |
| 2026-04-22 22:33 | 27.72579 | 85.37539 | 5867 ft | 107 kts | 41° |
| 2026-04-22 22:33 | 27.73137 | 85.38094 | 6295 ft | 106 kts | 44° |
| 2026-04-22 22:33 | 27.73546 | 85.38786 | 6650 ft | 107 kts | 64° |
| 2026-04-22 22:34 | 27.73792 | 85.39587 | 7023 ft | 108 kts | 74° |
| 2026-04-22 22:34 | 27.73966 | 85.40372 | 7381 ft | 109 kts | 78° |
| 2026-04-22 22:34 | 27.74061 | 85.41201 | 7708 ft | 113 kts | 88° |
| 2026-04-22 22:34 | 27.74026 | 85.42094 | 8039 ft | 117 kts | 101° |
| 2026-04-22 22:35 | 27.73851 | 85.42984 | 8370 ft | 113 kts | 101° |
| 2026-04-22 22:35 | 27.73666 | 85.43844 | 8712 ft | 112 kts | 106° |
| 2026-04-22 22:35 | 27.73424 | 85.44667 | 9040 ft | 109 kts | 114° |
| 2026-04-22 22:35 | 27.72991 | 85.45370 | 9324 ft | 110 kts | 136° |
| 2026-04-22 22:36 | 27.72408 | 85.45929 | 9644 ft | 110 kts | 144° |
| 2026-04-22 22:36 | 27.71805 | 85.46456 | 9951 ft | 110 kts | 144° |
| 2026-04-22 22:36 | 27.71161 | 85.46932 | 10175 ft | 115 kts | 154° |
| 2026-04-22 22:36 | 27.70378 | 85.47316 | 10293 ft | 129 kts | 161° |
| 2026-04-22 22:37 | 27.69501 | 85.47700 | 10431 ft | 141 kts | 160° |
| 2026-04-22 22:37 | 27.68578 | 85.48162 | 10554 ft | 149 kts | 155° |
| 2026-04-22 22:37 | 27.67657 | 85.48760 | 10673 ft | 155 kts | 146° |
| 2026-04-22 22:37 | 27.66782 | 85.49504 | 10792 ft | 160 kts | 143° |
| 2026-04-22 22:38 | 27.65878 | 85.50259 | 10903 ft | 164 kts | 146° |
| 2026-04-22 22:38 | 27.65010 | 85.51119 | 10943 ft | 169 kts | 133° |
| 2026-04-22 22:38 | 27.64267 | 85.52171 | 10968 ft | 174 kts | 122° |
| 2026-04-22 22:38 | 27.63685 | 85.53381 | 10981 ft | 177 kts | 117° |
| 2026-04-22 22:39 | 27.63123 | 85.54628 | 10988 ft | 180 kts | 116° |
| 2026-04-22 22:39 | 27.62595 | 85.55914 | 10992 ft | 181 kts | 114° |
| 2026-04-22 22:39 | 27.62176 | 85.57258 | 10989 ft | 182 kts | 105° |
| 2026-04-22 22:39 | 27.61842 | 85.58641 | 10988 ft | 183 kts | 105° |
| 2026-04-22 22:40 | 27.61478 | 85.60016 | 10984 ft | 184 kts | 107° |
| 2026-04-22 22:40 | 27.61101 | 85.61391 | 10980 ft | 183 kts | 107° |
| 2026-04-22 22:40 | 27.60735 | 85.62765 | 10985 ft | 183 kts | 106° |
| 2026-04-22 22:40 | 27.60373 | 85.64136 | 10980 ft | 182 kts | 106° |
| 2026-04-22 22:41 | 27.60007 | 85.65504 | 10983 ft | 182 kts | 106° |
| 2026-04-22 22:41 | 27.59610 | 85.66857 | 10981 ft | 182 kts | 108° |
| 2026-04-22 22:41 | 27.59238 | 85.68219 | 10981 ft | 182 kts | 106° |
| 2026-04-22 22:41 | 27.58826 | 85.69562 | 10980 ft | 181 kts | 113° |
| 2026-04-22 22:42 | 27.58339 | 85.70871 | 10968 ft | 181 kts | 114° |
| 2026-04-22 22:42 | 27.57775 | 85.72139 | 10979 ft | 181 kts | 117° |
| 2026-04-22 22:42 | 27.57196 | 85.73406 | 10974 ft | 182 kts | 116° |
| 2026-04-22 22:42 | 27.56639 | 85.74689 | 10981 ft | 183 kts | 116° |
| 2026-04-22 22:43 | 27.56084 | 85.75961 | 10974 ft | 184 kts | 116° |
| 2026-04-22 22:43 | 27.55510 | 85.77269 | 10975 ft | 184 kts | 116° |
| 2026-04-22 22:43 | 27.54936 | 85.78563 | 10972 ft | 185 kts | 116° |
| 2026-04-22 22:43 | 27.54366 | 85.79860 | 10973 ft | 185 kts | 116° |
| 2026-04-22 22:44 | 27.53802 | 85.81143 | 10957 ft | 185 kts | 116° |
| 2026-04-22 22:44 | 27.53283 | 85.82458 | 10974 ft | 183 kts | 114° |
| 2026-04-22 22:44 | 27.52748 | 85.83763 | 10968 ft | 184 kts | 114° |
| 2026-04-22 22:44 | 27.52299 | 85.85115 | 10988 ft | 185 kts | 109° |
| 2026-04-22 22:45 | 27.51890 | 85.86502 | 10991 ft | 188 kts | 107° |
| 2026-04-22 22:45 | 27.51516 | 85.87922 | 10961 ft | 189 kts | 103° |
| 2026-04-22 22:45 | 27.51369 | 85.88902 | 10998 ft | 188 kts | 97° |
| 2026-04-22 22:45 | 27.51208 | 85.90359 | 11009 ft | 187 kts | 97° |
| 2026-04-22 22:46 | 27.51041 | 85.91815 | 10994 ft | 187 kts | 97° |
| 2026-04-22 22:46 | 27.50916 | 85.93273 | 11009 ft | 186 kts | 92° |
| 2026-04-22 22:46 | 27.50892 | 85.94728 | 11039 ft | 187 kts | 91° |
| 2026-04-22 22:46 | 27.50839 | 85.96176 | 11067 ft | 188 kts | 92° |
| 2026-04-22 22:47 | 27.50778 | 85.97652 | 11066 ft | 189 kts | 90° |
| 2026-04-22 22:47 | 27.50726 | 85.99134 | 11038 ft | 189 kts | 91° |
| 2026-04-22 22:47 | 27.50667 | 86.00616 | 11009 ft | 190 kts | 92° |
| 2026-04-22 22:47 | 27.50615 | 86.02088 | 11018 ft | 187 kts | 92° |
| 2026-04-22 22:48 | 27.50558 | 86.03551 | 11055 ft | 187 kts | 92° |
| 2026-04-22 22:48 | 27.50500 | 86.05022 | 11070 ft | 187 kts | 91° |
| 2026-04-22 22:48 | 27.50451 | 86.06459 | 11002 ft | 180 kts | 91° |
| 2026-04-22 22:48 | 27.50398 | 86.07851 | 11021 ft | 176 kts | 91° |
| 2026-04-22 22:49 | 27.50344 | 86.09226 | 11028 ft | 175 kts | 92° |
| 2026-04-22 22:49 | 27.50292 | 86.10591 | 11021 ft | 174 kts | 91° |
| 2026-04-22 22:49 | 27.50242 | 86.11950 | 11001 ft | 173 kts | 91° |
| 2026-04-22 22:49 | 27.50189 | 86.13300 | 10952 ft | 171 kts | 91° |
| 2026-04-22 22:50 | 27.50137 | 86.14629 | 10987 ft | 170 kts | 92° |
| 2026-04-22 22:50 | 27.50087 | 86.15958 | 10998 ft | 170 kts | 91° |
| 2026-04-22 22:50 | 27.50036 | 86.17291 | 11009 ft | 170 kts | 92° |
| 2026-04-22 22:50 | 27.49984 | 86.18626 | 10984 ft | 170 kts | 91° |
| 2026-04-22 22:51 | 27.49933 | 86.19956 | 10982 ft | 170 kts | 91° |
| 2026-04-22 22:51 | 27.49881 | 86.21289 | 11040 ft | 171 kts | 91° |
| 2026-04-22 22:51 | 27.49825 | 86.22641 | 11115 ft | 174 kts | 92° |
| 2026-04-22 22:51 | 27.49777 | 86.24015 | 11049 ft | 176 kts | 92° |
| 2026-04-22 22:52 | 27.49722 | 86.25395 | 11110 ft | 177 kts | 90° |
| 2026-04-22 22:52 | 27.49684 | 86.26777 | 11071 ft | 176 kts | 90° |
| 2026-04-22 22:52 | 27.49725 | 86.28158 | 11086 ft | 178 kts | 83° |
| 2026-04-22 22:52 | 27.49835 | 86.29554 | 11377 ft | 177 kts | 84° |
| 2026-04-22 22:53 | 27.49911 | 86.30919 | 11673 ft | 173 kts | 86° |
| 2026-04-22 22:53 | 27.49980 | 86.32254 | 12033 ft | 169 kts | 85° |
| 2026-04-22 22:53 | 27.50053 | 86.33571 | 12287 ft | 168 kts | 84° |
| 2026-04-22 22:53 | 27.50133 | 86.34879 | 12636 ft | 167 kts | 83° |
| 2026-04-22 22:54 | 27.50215 | 86.36201 | 12908 ft | 173 kts | 84° |
| 2026-04-22 22:54 | 27.50285 | 86.37535 | 13017 ft | 171 kts | 85° |
| 2026-04-22 22:54 | 27.50355 | 86.38870 | 13014 ft | 171 kts | 84° |
| 2026-04-22 22:54 | 27.50440 | 86.40226 | 13043 ft | 172 kts | 84° |
| 2026-04-22 22:55 | 27.50518 | 86.41569 | 13065 ft | 172 kts | 84° |
| 2026-04-22 22:55 | 27.50592 | 86.42926 | 13238 ft | 176 kts | 83° |
| 2026-04-22 22:55 | 27.50742 | 86.45755 | 13290 ft | 185 kts | 85° |
| 2026-04-22 22:56 | 27.50854 | 86.47212 | 13243 ft | 189 kts | 83° |
| 2026-04-22 22:56 | 27.50924 | 86.48683 | 13163 ft | 187 kts | 85° |
| 2026-04-22 22:56 | 27.50990 | 86.50147 | 13094 ft | 182 kts | 83° |
| 2026-04-22 22:56 | 27.51070 | 86.51573 | 13289 ft | 182 kts | 84° |
| 2026-04-22 22:57 | 27.51157 | 86.52982 | 13106 ft | 181 kts | 83° |
| 2026-04-22 22:57 | 27.51224 | 86.54392 | 13198 ft | 181 kts | 85° |
| 2026-04-22 22:57 | 27.51303 | 86.55800 | 13091 ft | 178 kts | 82° |
| 2026-04-22 22:57 | 27.51397 | 86.57179 | 13080 ft | 174 kts | 81° |
| 2026-04-22 22:58 | 27.51829 | 86.58398 | 13080 ft | 166 kts | 49° |
| 2026-04-22 22:58 | 27.52585 | 86.59375 | 13095 ft | 165 kts | 40° |
| 2026-04-22 22:58 | 27.53413 | 86.60268 | 13099 ft | 164 kts | 35° |
| 2026-04-22 22:58 | 27.54321 | 86.61010 | 13034 ft | 156 kts | 26° |
| 2026-04-22 22:59 | 27.55142 | 86.61679 | 12978 ft | 139 kts | 33° |
| 2026-04-22 22:59 | 27.55891 | 86.62312 | 12853 ft | 131 kts | 31° |
| 2026-04-22 22:59 | 27.56621 | 86.62922 | 12743 ft | 132 kts | 32° |
| 2026-04-22 22:59 | 27.57366 | 86.63546 | 12627 ft | 135 kts | 31° |
| 2026-04-22 23:00 | 27.58128 | 86.64186 | 12516 ft | 138 kts | 32° |
| 2026-04-22 23:00 | 27.58899 | 86.64840 | 12462 ft | 139 kts | 32° |
| 2026-04-22 23:00 | 27.59672 | 86.65482 | 12474 ft | 138 kts | 32° |
| 2026-04-22 23:00 | 27.60445 | 86.66119 | 12459 ft | 137 kts | 34° |
| 2026-04-22 23:01 | 27.61205 | 86.66764 | 12373 ft | 136 kts | 35° |
| 2026-04-22 23:01 | 27.61959 | 86.67409 | 12266 ft | 136 kts | 36° |
| 2026-04-22 23:01 | 27.62711 | 86.68051 | 12103 ft | 135 kts | 34° |
| 2026-04-22 23:01 | 27.63466 | 86.68676 | 11969 ft | 135 kts | 33° |
| 2026-04-22 23:02 | 27.64223 | 86.69305 | 11822 ft | 129 kts | 32° |
| 2026-04-22 23:02 | 27.64926 | 86.69887 | 11692 ft | 124 kts | 31° |
| 2026-04-22 23:02 | 27.65725 | 86.70416 | 11375 ft | 133 kts | 38° |
| 2026-04-22 23:02 | 27.66545 | 86.70875 | 9964 ft | 159 kts | 35° |
| 2026-04-22 23:03 | 27.67571 | 86.71203 | 9559 ft | 113 kts | 41° |
| 2026-04-22 23:03 | 27.67963 | 86.71884 | 9092 ft | 95 kts | 44° |
| 2026-04-22 23:03 | 27.68371 | 86.72377 | 9080 ft | 80 kts | 46° |
| 2026-04-22 23:03 | 27.68643 | 86.72865 | 9269 ft | 55 kts | 62° |
| 2026-04-22 23:04 | 27.68722 | 86.73030 | 9366 ft | 16 kts | 62° |
| 2026-04-22 23:04 | 27.68773 | 86.73125 | 9420 ft | 16 kts | 54° |
| 2026-04-22 23:04 | 27.68727 | 86.73173 | 9421 ft | 9 kts | 238° |
| 2026-04-22 23:04 | 27.68733 | 86.73170 | 9422 ft | 0 kts | 60° |